sensor_id;sensor_type;location;lat;lon;timestamp;P1;durP1;ratioP1;P2;durP2;ratioP2
65863;SDS011;52639;51.180;20.460;2023-12-20T00:04:37;11.90;;;6.28;;
65863;SDS011;52639;51.180;20.460;2023-12-20T00:08:49;11.25;;;6.10;;
65863;SDS011;52639;51.180;20.460;2023-12-20T00:13:10;13.43;;;6.38;;
65863;SDS011;52639;51.180;20.460;2023-12-20T00:17:23;11.98;;;6.45;;
65863;SDS011;52639;51.180;20.460;2023-12-20T00:22:11;12.73;;;6.38;;
65863;SDS011;52639;51.180;20.460;2023-12-20T00:26:18;15.85;;;7.85;;
65863;SDS011;52639;51.180;20.460;2023-12-20T00:30:21;12.93;;;7.07;;
65863;SDS011;52639;51.180;20.460;2023-12-20T00:34:44;10.55;;;6.55;;
65863;SDS011;52639;51.180;20.460;2023-12-20T00:39:22;14.68;;;6.93;;
65863;SDS011;52639;51.180;20.460;2023-12-20T00:43:26;11.13;;;6.67;;
65863;SDS011;52639;51.180;20.460;2023-12-20T00:47:45;11.98;;;5.90;;
65863;SDS011;52639;51.180;20.460;2023-12-20T00:51:58;10.70;;;6.20;;
65863;SDS011;52639;51.180;20.460;2023-12-20T00:56:01;11.80;;;6.50;;
65863;SDS011;52639;51.180;20.460;2023-12-20T01:00:33;12.95;;;6.30;;
65863;SDS011;52639;51.180;20.460;2023-12-20T01:04:36;12.57;;;6.50;;
65863;SDS011;52639;51.180;20.460;2023-12-20T01:08:38;9.38;;;4.82;;
65863;SDS011;52639;51.180;20.460;2023-12-20T01:12:49;13.77;;;6.65;;
65863;SDS011;52639;51.180;20.460;2023-12-20T01:17:02;15.68;;;6.60;;
65863;SDS011;52639;51.180;20.460;2023-12-20T01:21:14;12.45;;;6.78;;
65863;SDS011;52639;51.180;20.460;2023-12-20T01:25:20;10.90;;;6.53;;
65863;SDS011;52639;51.180;20.460;2023-12-20T01:29:28;13.73;;;7.07;;
65863;SDS011;52639;51.180;20.460;2023-12-20T01:33:45;12.07;;;7.25;;
65863;SDS011;52639;51.180;20.460;2023-12-20T01:37:48;16.75;;;7.82;;
65863;SDS011;52639;51.180;20.460;2023-12-20T01:42:00;15.25;;;8.93;;
65863;SDS011;52639;51.180;20.460;2023-12-20T01:46:33;15.68;;;8.80;;
65863;SDS011;52639;51.180;20.460;2023-12-20T01:51:05;14.55;;;7.93;;
65863;SDS011;52639;51.180;20.460;2023-12-20T01:55:09;16.00;;;8.18;;
65863;SDS011;52639;51.180;20.460;2023-12-20T01:59:18;13.95;;;7.80;;
65863;SDS011;52639;51.180;20.460;2023-12-20T02:03:31;13.30;;;7.40;;
65863;SDS011;52639;51.180;20.460;2023-12-20T02:12:22;18.27;;;9.02;;
65863;SDS011;52639;51.180;20.460;2023-12-20T02:16:29;12.98;;;8.45;;
65863;SDS011;52639;51.180;20.460;2023-12-20T02:20:40;14.30;;;8.00;;
65863;SDS011;52639;51.180;20.460;2023-12-20T02:24:55;15.17;;;8.40;;
65863;SDS011;52639;51.180;20.460;2023-12-20T02:34:21;18.55;;;8.95;;
65863;SDS011;52639;51.180;20.460;2023-12-20T02:38:35;17.08;;;9.20;;
65863;SDS011;52639;51.180;20.460;2023-12-20T02:42:42;15.18;;;7.70;;
65863;SDS011;52639;51.180;20.460;2023-12-20T02:46:54;13.70;;;8.40;;
65863;SDS011;52639;51.180;20.460;2023-12-20T02:51:07;13.02;;;7.15;;
65863;SDS011;52639;51.180;20.460;2023-12-20T02:59:46;16.85;;;8.80;;
65863;SDS011;52639;51.180;20.460;2023-12-20T03:03:55;16.25;;;8.25;;
65863;SDS011;52639;51.180;20.460;2023-12-20T03:08:29;14.30;;;8.68;;
65863;SDS011;52639;51.180;20.460;2023-12-20T03:12:38;14.25;;;8.52;;
65863;SDS011;52639;51.180;20.460;2023-12-20T03:17:01;16.38;;;8.40;;
65863;SDS011;52639;51.180;20.460;2023-12-20T03:21:07;11.82;;;6.10;;
65863;SDS011;52639;51.180;20.460;2023-12-20T03:25:13;13.80;;;7.68;;
65863;SDS011;52639;51.180;20.460;2023-12-20T03:29:30;15.15;;;8.02;;
65863;SDS011;52639;51.180;20.460;2023-12-20T03:33:36;12.10;;;6.82;;
65863;SDS011;52639;51.180;20.460;2023-12-20T03:37:50;13.70;;;7.75;;
65863;SDS011;52639;51.180;20.460;2023-12-20T03:41:55;15.25;;;8.02;;
65863;SDS011;52639;51.180;20.460;2023-12-20T03:46:15;15.27;;;8.52;;
65863;SDS011;52639;51.180;20.460;2023-12-20T03:50:19;13.63;;;8.23;;
65863;SDS011;52639;51.180;20.460;2023-12-20T03:54:23;14.75;;;8.70;;
65863;SDS011;52639;51.180;20.460;2023-12-20T03:58:28;16.05;;;8.40;;
65863;SDS011;52639;51.180;20.460;2023-12-20T04:02:48;23.48;;;14.55;;
65863;SDS011;52639;51.180;20.460;2023-12-20T04:07:30;19.05;;;9.35;;
65863;SDS011;52639;51.180;20.460;2023-12-20T04:11:39;39.88;;;17.65;;
65863;SDS011;52639;51.180;20.460;2023-12-20T04:15:44;18.85;;;11.15;;
65863;SDS011;52639;51.180;20.460;2023-12-20T04:20:00;24.48;;;13.93;;
65863;SDS011;52639;51.180;20.460;2023-12-20T04:24:07;14.77;;;9.07;;
65863;SDS011;52639;51.180;20.460;2023-12-20T04:28:27;16.27;;;9.63;;
65863;SDS011;52639;51.180;20.460;2023-12-20T04:36:50;28.10;;;17.35;;
65863;SDS011;52639;51.180;20.460;2023-12-20T04:41:19;17.23;;;11.25;;
65863;SDS011;52639;51.180;20.460;2023-12-20T05:03:46;13.60;;;7.45;;
65863;SDS011;52639;51.180;20.460;2023-12-20T05:07:56;13.57;;;7.60;;
65863;SDS011;52639;51.180;20.460;2023-12-20T05:17:15;14.03;;;7.03;;
65863;SDS011;52639;51.180;20.460;2023-12-20T05:26:15;37.80;;;19.63;;
65863;SDS011;52639;51.180;20.460;2023-12-20T05:30:23;16.13;;;9.35;;
65863;SDS011;52639;51.180;20.460;2023-12-20T05:34:39;22.45;;;14.18;;
65863;SDS011;52639;51.180;20.460;2023-12-20T05:39:21;19.15;;;12.40;;
65863;SDS011;52639;51.180;20.460;2023-12-20T05:43:25;17.90;;;10.25;;
65863;SDS011;52639;51.180;20.460;2023-12-20T05:47:54;17.38;;;7.88;;
65863;SDS011;52639;51.180;20.460;2023-12-20T05:52:38;15.27;;;9.18;;
65863;SDS011;52639;51.180;20.460;2023-12-20T05:56:48;17.15;;;9.32;;
65863;SDS011;52639;51.180;20.460;2023-12-20T06:01:16;14.75;;;9.20;;
65863;SDS011;52639;51.180;20.460;2023-12-20T06:05:19;14.38;;;8.52;;
65863;SDS011;52639;51.180;20.460;2023-12-20T06:18:15;14.18;;;8.50;;
65863;SDS011;52639;51.180;20.460;2023-12-20T06:22:18;22.92;;;10.70;;
65863;SDS011;52639;51.180;20.460;2023-12-20T06:37:16;14.82;;;8.57;;
65863;SDS011;52639;51.180;20.460;2023-12-20T06:45:58;10.43;;;6.43;;
65863;SDS011;52639;51.180;20.460;2023-12-20T06:55:39;10.90;;;5.38;;
65863;SDS011;52639;51.180;20.460;2023-12-20T07:05:57;7.30;;;4.15;;
65863;SDS011;52639;51.180;20.460;2023-12-20T07:10:26;8.82;;;4.93;;
65863;SDS011;52639;51.180;20.460;2023-12-20T07:15:22;7.78;;;4.72;;
65863;SDS011;52639;51.180;20.460;2023-12-20T07:20:11;13.60;;;6.68;;
65863;SDS011;52639;51.180;20.460;2023-12-20T07:24:33;14.60;;;7.43;;
65863;SDS011;52639;51.180;20.460;2023-12-20T07:29:06;11.13;;;5.75;;
65863;SDS011;52639;51.180;20.460;2023-12-20T07:38:35;11.85;;;6.00;;
65863;SDS011;52639;51.180;20.460;2023-12-20T07:43:18;14.57;;;7.07;;
65863;SDS011;52639;51.180;20.460;2023-12-20T07:48:16;8.80;;;5.20;;
65863;SDS011;52639;51.180;20.460;2023-12-20T07:56:46;11.65;;;6.10;;
65863;SDS011;52639;51.180;20.460;2023-12-20T08:01:37;14.50;;;5.72;;
65863;SDS011;52639;51.180;20.460;2023-12-20T08:06:37;10.48;;;4.40;;
65863;SDS011;52639;51.180;20.460;2023-12-20T08:17:32;6.07;;;2.70;;
65863;SDS011;52639;51.180;20.460;2023-12-20T08:22:51;5.03;;;3.17;;
65863;SDS011;52639;51.180;20.460;2023-12-20T08:27:52;8.35;;;4.35;;
65863;SDS011;52639;51.180;20.460;2023-12-20T08:32:30;21.02;;;10.38;;
65863;SDS011;52639;51.180;20.460;2023-12-20T08:36:42;7.43;;;4.10;;
65863;SDS011;52639;51.180;20.460;2023-12-20T08:40:57;9.50;;;5.40;;
65863;SDS011;52639;51.180;20.460;2023-12-20T08:50:31;8.98;;;5.15;;
65863;SDS011;52639;51.180;20.460;2023-12-20T08:55:17;3.28;;;2.25;;
65863;SDS011;52639;51.180;20.460;2023-12-20T08:59:54;4.72;;;2.78;;
65863;SDS011;52639;51.180;20.460;2023-12-20T09:04:01;3.92;;;2.40;;
65863;SDS011;52639;51.180;20.460;2023-12-20T09:08:47;4.18;;;2.38;;
65863;SDS011;52639;51.180;20.460;2023-12-20T09:33:18;6.65;;;3.45;;
65863;SDS011;52639;51.180;20.460;2023-12-20T09:38:02;4.13;;;2.85;;
65863;SDS011;52639;51.180;20.460;2023-12-20T10:13:23;9.00;;;4.35;;
65863;SDS011;52639;51.180;20.460;2023-12-20T10:18:17;9.65;;;4.65;;
65863;SDS011;52639;51.180;20.460;2023-12-20T10:22:53;8.23;;;3.72;;
65863;SDS011;52639;51.180;20.460;2023-12-20T10:27:23;14.60;;;6.38;;
65863;SDS011;52639;51.180;20.460;2023-12-20T10:41:59;14.18;;;7.25;;
65863;SDS011;52639;51.180;20.460;2023-12-20T10:46:29;12.13;;;4.45;;
65863;SDS011;52639;51.180;20.460;2023-12-20T10:51:55;8.77;;;4.47;;
65863;SDS011;52639;51.180;20.460;2023-12-20T11:01:24;16.48;;;9.75;;
65863;SDS011;52639;51.180;20.460;2023-12-20T11:06:08;13.68;;;8.93;;
65863;SDS011;52639;51.180;20.460;2023-12-20T11:10:43;6.78;;;3.38;;
65863;SDS011;52639;51.180;20.460;2023-12-20T11:15:15;5.68;;;3.20;;
65863;SDS011;52639;51.180;20.460;2023-12-20T11:19:22;17.30;;;6.47;;
65863;SDS011;52639;51.180;20.460;2023-12-20T11:23:27;10.43;;;4.07;;
65863;SDS011;52639;51.180;20.460;2023-12-20T11:27:40;10.57;;;4.32;;
65863;SDS011;52639;51.180;20.460;2023-12-20T11:32:28;4.75;;;2.40;;
65863;SDS011;52639;51.180;20.460;2023-12-20T11:42:04;24.52;;;8.88;;
65863;SDS011;52639;51.180;20.460;2023-12-20T11:46:40;15.32;;;8.07;;
65863;SDS011;52639;51.180;20.460;2023-12-20T12:01:52;12.18;;;6.07;;
65863;SDS011;52639;51.180;20.460;2023-12-20T12:10:54;16.38;;;6.93;;
65863;SDS011;52639;51.180;20.460;2023-12-20T12:15:14;17.73;;;8.48;;
65863;SDS011;52639;51.180;20.460;2023-12-20T12:28:47;10.38;;;4.63;;
65863;SDS011;52639;51.180;20.460;2023-12-20T12:33:06;14.43;;;6.88;;
65863;SDS011;52639;51.180;20.460;2023-12-20T12:37:42;9.73;;;5.20;;
65863;SDS011;52639;51.180;20.460;2023-12-20T12:47:55;9.80;;;5.80;;
65863;SDS011;52639;51.180;20.460;2023-12-20T12:52:07;14.20;;;8.95;;
65863;SDS011;52639;51.180;20.460;2023-12-20T12:56:42;21.20;;;9.80;;
65863;SDS011;52639;51.180;20.460;2023-12-20T13:16:07;14.48;;;7.13;;
65863;SDS011;52639;51.180;20.460;2023-12-20T13:21:01;22.55;;;8.90;;
65863;SDS011;52639;51.180;20.460;2023-12-20T13:25:40;8.68;;;4.03;;
65863;SDS011;52639;51.180;20.460;2023-12-20T13:35:47;12.18;;;4.75;;
65863;SDS011;52639;51.180;20.460;2023-12-20T13:41:17;9.90;;;4.72;;
65863;SDS011;52639;51.180;20.460;2023-12-20T13:45:47;8.55;;;4.43;;
65863;SDS011;52639;51.180;20.460;2023-12-20T13:50:33;7.93;;;3.58;;
65863;SDS011;52639;51.180;20.460;2023-12-20T13:55:17;9.02;;;3.92;;
65863;SDS011;52639;51.180;20.460;2023-12-20T14:00:00;11.27;;;4.72;;
65863;SDS011;52639;51.180;20.460;2023-12-20T14:04:04;13.43;;;7.35;;
65863;SDS011;52639;51.180;20.460;2023-12-20T14:08:15;11.90;;;6.15;;
65863;SDS011;52639;51.180;20.460;2023-12-20T14:17:53;12.48;;;7.15;;
65863;SDS011;52639;51.180;20.460;2023-12-20T14:27:53;14.60;;;7.03;;
65863;SDS011;52639;51.180;20.460;2023-12-20T14:41:55;12.85;;;6.13;;
65863;SDS011;52639;51.180;20.460;2023-12-20T15:12:52;93.15;;;32.47;;
65863;SDS011;52639;51.180;20.460;2023-12-20T15:16:57;37.13;;;16.67;;
65863;SDS011;52639;51.180;20.460;2023-12-20T15:25:59;47.92;;;20.75;;
65863;SDS011;52639;51.180;20.460;2023-12-20T15:31:33;26.45;;;13.68;;
65863;SDS011;52639;51.180;20.460;2023-12-20T15:40:33;12.90;;;7.05;;
65863;SDS011;52639;51.180;20.460;2023-12-20T15:45:58;53.70;;;23.92;;
65863;SDS011;52639;51.180;20.460;2023-12-20T15:50:39;35.33;;;17.88;;
65863;SDS011;52639;51.180;20.460;2023-12-20T16:05:47;62.05;;;24.92;;
65863;SDS011;52639;51.180;20.460;2023-12-20T16:11:08;81.47;;;24.75;;
65863;SDS011;52639;51.180;20.460;2023-12-20T16:37:20;31.23;;;16.03;;
65863;SDS011;52639;51.180;20.460;2023-12-20T16:41:48;15.35;;;6.78;;
65863;SDS011;52639;51.180;20.460;2023-12-20T16:46:56;14.05;;;5.93;;
65863;SDS011;52639;51.180;20.460;2023-12-20T17:18:51;22.83;;;10.68;;
65863;SDS011;52639;51.180;20.460;2023-12-20T17:28:15;10.32;;;5.53;;
65863;SDS011;52639;51.180;20.460;2023-12-20T17:33:09;17.05;;;7.22;;
65863;SDS011;52639;51.180;20.460;2023-12-20T17:37:52;21.83;;;7.65;;
65863;SDS011;52639;51.180;20.460;2023-12-20T18:56:27;18.10;;;6.93;;
65863;SDS011;52639;51.180;20.460;2023-12-20T19:26:35;9.02;;;5.45;;
65863;SDS011;52639;51.180;20.460;2023-12-20T19:31:22;11.43;;;5.85;;
65863;SDS011;52639;51.180;20.460;2023-12-20T19:40:46;11.18;;;5.97;;
65863;SDS011;52639;51.180;20.460;2023-12-20T19:45:36;10.57;;;5.95;;
65863;SDS011;52639;51.180;20.460;2023-12-20T19:49:52;15.10;;;6.72;;
65863;SDS011;52639;51.180;20.460;2023-12-20T19:54:09;9.60;;;5.53;;
65863;SDS011;52639;51.180;20.460;2023-12-20T19:58:15;11.13;;;5.28;;
65863;SDS011;52639;51.180;20.460;2023-12-20T20:03:01;11.07;;;6.32;;
65863;SDS011;52639;51.180;20.460;2023-12-20T20:07:07;10.90;;;5.15;;
65863;SDS011;52639;51.180;20.460;2023-12-20T20:11:16;15.35;;;6.97;;
65863;SDS011;52639;51.180;20.460;2023-12-20T20:15:21;8.07;;;5.00;;
65863;SDS011;52639;51.180;20.460;2023-12-20T20:19:31;12.98;;;5.75;;
65863;SDS011;52639;51.180;20.460;2023-12-20T20:23:36;8.15;;;5.07;;
65863;SDS011;52639;51.180;20.460;2023-12-20T21:02:23;6.32;;;3.35;;
65863;SDS011;52639;51.180;20.460;2023-12-20T21:06:30;7.18;;;3.80;;
65863;SDS011;52639;51.180;20.460;2023-12-20T21:10:35;5.70;;;3.00;;
65863;SDS011;52639;51.180;20.460;2023-12-20T21:19:21;6.55;;;3.88;;
65863;SDS011;52639;51.180;20.460;2023-12-20T21:23:47;7.63;;;3.60;;
65863;SDS011;52639;51.180;20.460;2023-12-20T21:28:08;10.93;;;4.78;;
65863;SDS011;52639;51.180;20.460;2023-12-20T21:32:31;10.40;;;5.15;;
65863;SDS011;52639;51.180;20.460;2023-12-20T21:36:38;9.68;;;4.63;;
65863;SDS011;52639;51.180;20.460;2023-12-20T21:55:00;9.55;;;4.25;;
65863;SDS011;52639;51.180;20.460;2023-12-20T21:59:26;6.38;;;3.42;;
65863;SDS011;52639;51.180;20.460;2023-12-20T22:03:49;9.43;;;4.15;;
65863;SDS011;52639;51.180;20.460;2023-12-20T22:13:30;8.38;;;3.60;;
65863;SDS011;52639;51.180;20.460;2023-12-20T22:18:37;5.72;;;3.08;;
65863;SDS011;52639;51.180;20.460;2023-12-20T22:33:52;5.43;;;3.58;;
65863;SDS011;52639;51.180;20.460;2023-12-20T22:37:56;10.77;;;3.50;;
65863;SDS011;52639;51.180;20.460;2023-12-20T22:42:38;7.93;;;3.60;;
65863;SDS011;52639;51.180;20.460;2023-12-20T22:46:53;5.32;;;2.78;;
65863;SDS011;52639;51.180;20.460;2023-12-20T22:50:57;11.20;;;3.17;;
65863;SDS011;52639;51.180;20.460;2023-12-20T22:55:00;9.07;;;2.97;;
65863;SDS011;52639;51.180;20.460;2023-12-20T22:59:03;8.02;;;3.25;;
65863;SDS011;52639;51.180;20.460;2023-12-20T23:03:06;8.98;;;3.63;;
65863;SDS011;52639;51.180;20.460;2023-12-20T23:07:14;13.25;;;3.25;;
65863;SDS011;52639;51.180;20.460;2023-12-20T23:11:21;6.47;;;2.80;;
65863;SDS011;52639;51.180;20.460;2023-12-20T23:15:35;7.70;;;3.17;;
65863;SDS011;52639;51.180;20.460;2023-12-20T23:30:41;6.70;;;3.20;;
65863;SDS011;52639;51.180;20.460;2023-12-20T23:35:02;7.13;;;3.47;;
65863;SDS011;52639;51.180;20.460;2023-12-20T23:39:12;9.43;;;3.10;;
65863;SDS011;52639;51.180;20.460;2023-12-20T23:43:20;12.38;;;3.80;;
65863;SDS011;52639;51.180;20.460;2023-12-20T23:47:25;7.80;;;3.70;;
65863;SDS011;52639;51.180;20.460;2023-12-20T23:51:45;9.30;;;4.05;;
65863;SDS011;52639;51.180;20.460;2023-12-20T23:55:48;8.85;;;3.42;;
65863;SDS011;52639;51.180;20.460;2023-12-20T23:59:51;7.35;;;3.83;;
